Time;durP1;ratioP1;P1;durP2;ratioP2;P2;SDS_P1;SDS_P2;PMS_P1;PMS_P2;Temp;Humidity;BMP_temperature;BMP_pressure;BME280_temperature;BME280_humidity;BME280_pressure;Samples;Min_cycle;Max_cycle;Signal;HPM_P1;HPM_P2
2022/04/25 00:01:12;;;;;;;13.38;7.05;;;7.90;99.90;;;;;;5023271;28;20040;-69
2022/04/25 00:03:39;;;;;;;14.80;6.38;;;7.90;99.90;;;;;;5025034;28;20072;-69
2022/04/25 00:06:05;;;;;;;16.75;7.68;;;7.80;99.90;;;;;;5026096;28;20046;-69
2022/04/25 00:08:31;;;;;;;13.50;6.93;;;7.80;99.90;;;;;;5025514;28;20333;-69
2022/04/25 00:10:58;;;;;;;10.43;6.55;;;7.80;99.90;;;;;;5025155;28;20405;-69
2022/04/25 00:13:24;;;;;;;12.43;6.68;;;7.80;99.90;;;;;;5026315;28;20411;-70
2022/04/25 00:15:50;;;;;;;13.48;6.78;;;7.80;99.90;;;;;;5026411;28;20045;-69
2022/04/25 00:18:16;;;;;;;10.32;6.53;;;7.80;99.90;;;;;;5025983;28;20048;-69
2022/04/25 00:20:41;;;;;;;12.20;6.30;;;7.80;99.90;;;;;;5041437;28;20480;-69
2022/04/25 00:23:07;;;;;;;16.10;6.82;;;7.80;99.90;;;;;;5024906;28;20065;-69
2022/04/25 00:25:34;;;;;;;13.70;6.63;;;7.80;99.90;;;;;;5024866;28;20037;-69
2022/04/25 00:28:02;;;;;;;16.35;7.10;;;7.80;99.90;;;;;;5024611;28;20045;-69
2022/04/25 00:30:30;;;;;;;9.75;6.60;;;7.80;99.90;;;;;;5025880;28;20042;-69
2022/04/25 00:32:58;;;;;;;12.13;6.78;;;7.80;99.90;;;;;;5007158;28;20046;-69
2022/04/25 00:35:24;;;;;;;9.38;6.07;;;7.80;99.90;;;;;;5004762;28;20049;-69
2022/04/25 00:37:51;;;;;;;10.35;6.43;;;7.80;99.90;;;;;;4989300;28;20689;-69
2022/04/25 00:40:21;;;;;;;12.10;5.70;;;7.80;99.90;;;;;;5005875;28;20048;-70
2022/04/25 00:42:48;;;;;;;12.73;5.90;;;7.80;99.90;;;;;;5019981;28;20442;-69
2022/04/25 00:45:15;;;;;;;11.90;5.10;;;7.80;99.90;;;;;;5025947;28;20041;-70
2022/04/25 00:47:42;;;;;;;10.32;5.18;;;7.80;99.90;;;;;;5024877;28;20090;-69
2022/04/25 00:50:09;;;;;;;11.02;5.18;;;7.80;99.90;;;;;;5008042;28;20132;-70
2022/04/25 00:52:36;;;;;;;11.18;4.85;;;7.90;99.90;;;;;;5025587;28;20515;-69
2022/04/25 00:55:04;;;;;;;10.77;5.45;;;7.80;99.90;;;;;;5025666;28;20042;-70
2022/04/25 00:57:31;;;;;;;12.95;5.82;;;7.80;99.90;;;;;;5025925;28;20384;-69
2022/04/25 00:59:58;;;;;;;13.30;4.90;;;7.80;99.90;;;;;;5026172;28;20053;-69
2022/04/25 01:02:26;;;;;;;11.85;5.30;;;7.80;99.90;;;;;;5025158;28;20120;-69
2022/04/25 01:04:55;;;;;;;12.65;5.68;;;7.80;99.90;;;;;;5024496;28;20060;-69
2022/04/25 01:07:21;;;;;;;9.68;5.20;;;7.80;99.90;;;;;;5025484;28;20045;-70
2022/04/25 01:09:47;;;;;;;10.73;5.13;;;7.70;99.90;;;;;;5024481;28;20492;-69
2022/04/25 01:12:13;;;;;;;10.48;4.63;;;7.80;99.90;;;;;;5025704;28;20133;-69
2022/04/25 01:14:39;;;;;;;9.52;5.35;;;7.80;99.90;;;;;;5025651;28;20057;-69
2022/04/25 01:17:05;;;;;;;8.43;5.10;;;7.80;99.90;;;;;;5027392;28;20041;-69
2022/04/25 01:19:31;;;;;;;12.27;5.95;;;7.80;99.90;;;;;;5011870;28;20053;-69
2022/04/25 01:22:30;;;;;;;13.80;6.00;;;7.80;99.90;;;;;;5029741;28;20053;-69
2022/04/25 01:27:41;;;;;;;12.93;5.47;;;7.80;99.90;;;;;;5029916;28;20049;-69
2022/04/25 01:30:09;;;;;;;9.50;5.60;;;7.80;99.90;;;;;;5044792;28;20515;-69
2022/04/25 01:32:36;;;;;;;7.93;5.00;;;7.80;99.90;;;;;;5013158;28;20527;-69
2022/04/25 01:35:02;;;;;;;17.00;6.68;;;7.80;99.90;;;;;;5023022;28;20057;-70
2022/04/25 01:37:28;;;;;;;12.68;6.15;;;7.70;99.90;;;;;;5029204;28;20057;-69
2022/04/25 01:39:55;;;;;;;9.80;5.63;;;7.70;99.90;;;;;;5027878;28;20116;-69
2022/04/25 01:42:22;;;;;;;16.63;5.78;;;7.70;99.90;;;;;;5029187;28;20068;-69
2022/04/25 01:44:48;;;;;;;15.35;6.35;;;7.70;99.90;;;;;;5029070;28;20084;-70
2022/04/25 01:47:14;;;;;;;12.32;6.55;;;7.70;99.90;;;;;;5028754;28;20037;-69
2022/04/25 01:49:40;;;;;;;11.15;5.90;;;7.70;99.90;;;;;;5027695;28;20064;-69
2022/04/25 01:52:13;;;;;;;10.07;5.85;;;7.70;99.90;;;;;;5028799;28;20488;-69
2022/04/25 01:54:38;;;;;;;12.23;5.82;;;7.60;99.90;;;;;;5027940;28;20041;-69
2022/04/25 01:57:04;;;;;;;10.13;5.70;;;7.60;99.90;;;;;;5020989;28;20057;-70
2022/04/25 01:59:30;;;;;;;12.73;6.07;;;7.60;99.90;;;;;;5024267;28;20049;-70
2022/04/25 02:01:56;;;;;;;13.68;6.25;;;7.60;99.90;;;;;;5023607;28;20088;-69
2022/04/25 02:04:22;;;;;;;13.85;5.40;;;7.60;99.90;;;;;;5026880;28;20037;-70
2022/04/25 02:06:49;;;;;;;12.18;5.35;;;7.50;99.90;;;;;;5010732;28;20042;-69
2022/04/25 02:09:15;;;;;;;9.18;5.05;;;7.50;99.90;;;;;;5028904;28;20033;-70
2022/04/25 02:11:40;;;;;;;11.27;7.13;;;7.50;99.90;;;;;;5028969;28;20507;-70
2022/04/25 02:14:06;;;;;;;8.13;4.95;;;7.40;99.90;;;;;;5028184;28;20047;-69
2022/04/25 02:16:32;;;;;;;13.95;5.25;;;7.40;99.90;;;;;;5028115;28;20045;-70
2022/04/25 02:18:58;;;;;;;11.93;5.30;;;7.40;99.90;;;;;;5026888;28;20116;-69
2022/04/25 02:21:24;;;;;;;13.25;4.88;;;7.40;99.90;;;;;;5027082;28;20034;-69
2022/04/25 02:23:50;;;;;;;6.22;4.63;;;7.40;99.90;;;;;;5028516;28;20085;-69
2022/04/25 02:26:16;;;;;;;10.18;5.07;;;7.40;99.90;;;;;;5027965;28;20038;-69
2022/04/25 02:28:41;;;;;;;7.70;4.85;;;7.40;99.90;;;;;;5026373;28;20052;-69
2022/04/25 02:31:07;;;;;;;8.25;4.72;;;7.30;99.90;;;;;;5023788;28;20093;-69
2022/04/25 02:33:35;;;;;;;15.48;5.45;;;7.30;99.90;;;;;;5013136;28;20045;-69
2022/04/25 02:36:04;;;;;;;12.88;5.03;;;7.40;99.90;;;;;;5028376;28;20084;-70
2022/04/25 02:38:34;;;;;;;9.63;4.43;;;7.40;99.90;;;;;;5028032;28;20095;-69
2022/04/25 02:41:06;;;;;;;12.38;5.47;;;7.40;99.90;;;;;;5028109;28;20327;-69
2022/04/25 02:43:34;;;;;;;8.95;4.43;;;7.40;99.90;;;;;;5028409;28;20535;-69
2022/04/25 02:46:01;;;;;;;7.22;4.63;;;7.40;99.90;;;;;;5028132;28;20112;-69
2022/04/25 02:48:27;;;;;;;12.32;5.20;;;7.40;99.90;;;;;;5026013;28;20684;-69
2022/04/25 02:50:53;;;;;;;10.60;4.75;;;7.30;99.90;;;;;;5026685;28;20153;-69
2022/04/25 02:53:18;;;;;;;13.77;5.47;;;7.30;99.90;;;;;;5022830;28;20519;-70
2022/04/25 02:55:44;;;;;;;9.98;4.75;;;7.30;99.90;;;;;;4990621;28;20499;-70
2022/04/25 02:58:10;;;;;;;9.45;4.93;;;7.30;99.90;;;;;;5006683;28;20061;-70
2022/04/25 03:00:36;;;;;;;12.57;4.93;;;7.30;99.90;;;;;;5023466;28;20076;-69
2022/04/25 03:03:02;;;;;;;15.50;5.13;;;7.30;99.90;;;;;;5026484;28;20049;-69
2022/04/25 03:05:28;;;;;;;11.60;5.18;;;7.30;99.90;;;;;;5025681;28;20476;-69
2022/04/25 03:07:54;;;;;;;11.40;4.70;;;7.30;99.90;;;;;;5027708;28;20056;-69
2022/04/25 03:10:19;;;;;;;11.13;4.80;;;7.30;99.90;;;;;;5025639;28;20436;-69
2022/04/25 03:12:45;;;;;;;15.15;5.43;;;7.30;99.90;;;;;;5026425;28;20053;-69
2022/04/25 03:15:11;;;;;;;12.82;5.18;;;7.30;99.90;;;;;;5027124;28;20132;-69
2022/04/25 03:17:38;;;;;;;10.10;5.63;;;7.30;99.90;;;;;;5026353;28;20045;-69
2022/04/25 03:20:05;;;;;;;9.45;5.97;;;7.30;99.90;;;;;;5025833;28;20045;-69
2022/04/25 03:22:30;;;;;;;13.23;5.93;;;7.30;99.90;;;;;;5026200;28;20048;-69
2022/04/25 03:24:56;;;;;;;10.55;5.53;;;7.30;99.90;;;;;;5025960;28;20083;-69
2022/04/25 03:27:22;;;;;;;10.85;5.53;;;7.30;99.90;;;;;;5025625;28;20084;-69
2022/04/25 03:29:49;;;;;;;11.98;5.43;;;7.30;99.90;;;;;;5025754;28;20053;-70
2022/04/25 03:32:15;;;;;;;15.75;5.72;;;7.30;99.90;;;;;;5041657;28;20045;-70
2022/04/25 03:34:41;;;;;;;12.38;5.72;;;7.30;99.90;;;;;;5026780;28;20480;-69
2022/04/25 03:37:08;;;;;;;10.60;5.80;;;7.30;99.90;;;;;;5026141;28;20053;-69
2022/04/25 03:39:34;;;;;;;10.98;5.35;;;7.20;99.90;;;;;;5025672;28;20045;-69
2022/04/25 03:42:01;;;;;;;9.45;5.30;;;7.20;99.90;;;;;;5042272;28;20452;-69
2022/04/25 03:44:27;;;;;;;9.63;4.57;;;7.20;99.90;;;;;;5026258;28;20508;-69
2022/04/25 03:46:53;;;;;;;16.23;5.25;;;7.30;99.90;;;;;;5025569;28;20584;-70
2022/04/25 03:49:19;;;;;;;7.03;5.15;;;7.30;99.90;;;;;;5024779;28;20612;-70
2022/04/25 03:51:44;;;;;;;10.38;4.40;;;7.30;99.90;;;;;;5025252;28;20061;-69
2022/04/25 03:54:10;;;;;;;10.57;4.20;;;7.30;99.90;;;;;;5025363;28;20049;-68
2022/04/25 03:59:20;;;;;;;12.98;5.00;;;7.30;99.90;;;;;;5026099;28;20507;-70
2022/04/25 04:01:45;;;;;;;17.10;6.95;;;7.30;99.90;;;;;;5025603;28;20049;-70
2022/04/25 04:04:11;;;;;;;10.80;6.30;;;7.30;99.90;;;;;;5024895;28;20148;-69
2022/04/25 04:06:37;;;;;;;8.77;5.88;;;7.30;99.90;;;;;;5021612;28;20055;-69
2022/04/25 04:09:44;;;;;;;11.57;5.18;;;7.30;99.90;;;;;;5005750;28;20042;-69
2022/04/25 04:11:49;;;;;;;11.25;4.35;;;7.30;99.90;;;;;;5006918;28;20185;-69
2022/04/25 04:14:15;;;;;;;19.45;6.07;;;7.30;99.90;;;;;;5004918;28;20128;-70
2022/04/25 04:16:42;;;;;;;14.55;5.72;;;7.30;99.90;;;;;;5022425;28;20118;-69
2022/04/25 04:19:09;;;;;;;10.90;5.30;;;7.30;99.90;;;;;;5026440;28;20091;-69
2022/04/25 04:21:35;;;;;;;12.70;5.45;;;7.40;99.90;;;;;;5026127;28;20090;-69
2022/04/25 04:24:01;;;;;;;13.32;5.28;;;7.30;99.90;;;;;;5026216;28;20442;-69
2022/04/25 04:26:28;;;;;;;15.52;5.20;;;7.40;99.90;;;;;;5025559;28;20041;-70
2022/04/25 04:28:56;;;;;;;10.10;5.30;;;7.40;99.90;;;;;;5025936;28;20042;-70
2022/04/25 04:31:22;;;;;;;13.98;5.35;;;7.30;99.90;;;;;;5024434;28;20051;-69
2022/04/25 04:33:48;;;;;;;18.85;5.32;;;7.30;99.90;;;;;;5026206;28;20172;-70
2022/04/25 04:36:22;;;;;;;15.50;5.03;;;7.30;99.90;;;;;;5026019;28;20124;-70
2022/04/25 04:38:48;;;;;;;8.55;4.50;;;7.20;99.90;;;;;;5026261;28;20041;-69
2022/04/25 04:41:14;;;;;;;7.50;4.15;;;7.30;99.90;;;;;;5026017;28;20042;-70
2022/04/25 04:43:39;;;;;;;11.00;5.03;;;7.30;99.90;;;;;;5025883;28;20049;-69
2022/04/25 04:46:05;;;;;;;8.95;4.43;;;7.30;99.90;;;;;;5024417;28;20055;-69
2022/04/25 04:48:31;;;;;;;12.70;4.65;;;7.20;99.90;;;;;;5025504;28;20100;-69
2022/04/25 04:50:58;;;;;;;10.55;4.90;;;7.30;99.90;;;;;;5024331;28;20408;-69
2022/04/25 04:53:24;;;;;;;5.65;3.90;;;7.30;99.90;;;;;;5025613;28;20132;-69
2022/04/25 04:55:51;;;;;;;17.88;5.57;;;7.30;99.90;;;;;;5024717;28;20523;-69
2022/04/25 04:58:19;;;;;;;8.25;4.18;;;7.30;99.90;;;;;;5025947;28;20115;-69
2022/04/25 05:00:46;;;;;;;10.82;5.15;;;7.40;99.90;;;;;;5025329;28;20037;-70
2022/04/25 05:03:15;;;;;;;10.10;4.97;;;7.30;99.90;;;;;;5006583;28;20125;-70
2022/04/25 05:05:48;;;;;;;10.57;4.87;;;7.30;99.90;;;;;;5021083;28;20483;-70
2022/04/25 05:08:13;;;;;;;11.32;5.03;;;7.30;99.90;;;;;;5011746;28;20046;-70
2022/04/25 05:10:40;;;;;;;15.60;5.70;;;7.30;99.90;;;;;;5024322;28;20064;-69
2022/04/25 05:13:06;;;;;;;10.57;5.25;;;7.30;99.90;;;;;;5024558;28;20100;-70
2022/04/25 05:15:32;;;;;;;12.57;5.63;;;7.30;99.90;;;;;;5025248;28;20046;-69
2022/04/25 05:17:59;;;;;;;9.55;5.18;;;7.20;99.90;;;;;;5025805;28;20503;-70
2022/04/25 05:20:24;;;;;;;8.98;4.75;;;7.20;99.90;;;;;;5024898;28;20048;-70
2022/04/25 05:22:51;;;;;;;12.60;5.80;;;7.20;99.90;;;;;;5025966;28;20403;-70
2022/04/25 05:25:19;;;;;;;11.98;5.40;;;7.30;99.90;;;;;;5025609;28;20531;-70
2022/04/25 05:27:48;;;;;;;14.27;5.47;;;7.30;99.90;;;;;;5024015;28;20037;-70
2022/04/25 05:30:15;;;;;;;13.82;5.35;;;7.20;99.90;;;;;;5025500;28;20507;-70
2022/04/25 05:32:48;;;;;;;9.60;4.85;;;7.30;99.90;;;;;;5009628;28;20137;-69
2022/04/25 05:35:16;;;;;;;11.48;5.07;;;7.20;99.90;;;;;;5004620;28;20038;-69
2022/04/25 05:37:42;;;;;;;13.95;5.57;;;7.20;99.90;;;;;;5005463;28;20045;-69
2022/04/25 05:40:10;;;;;;;11.05;4.65;;;7.20;99.90;;;;;;5025318;28;20383;-69
2022/04/25 05:42:36;;;;;;;14.77;5.00;;;7.30;99.90;;;;;;5024845;28;20073;-69
2022/04/25 05:45:04;;;;;;;13.60;5.15;;;7.30;99.90;;;;;;5025868;28;20087;-69
2022/04/25 05:47:31;;;;;;;13.40;6.07;;;7.40;99.90;;;;;;5025042;28;20041;-69
2022/04/25 05:52:41;;;;;;;12.52;5.80;;;7.40;99.90;;;;;;5025218;28;20076;-69
2022/04/25 05:55:07;;;;;;;10.52;4.60;;;7.40;99.90;;;;;;5025234;28;20045;-70
2022/04/25 05:57:33;;;;;;;10.15;4.95;;;7.40;99.90;;;;;;5023797;28;20050;-69
2022/04/25 05:59:59;;;;;;;12.68;5.50;;;7.40;99.90;;;;;;5025201;28;20103;-69
2022/04/25 06:02:24;;;;;;;10.60;5.47;;;7.40;99.90;;;;;;5025599;28;20072;-69
2022/04/25 06:04:50;;;;;;;8.88;4.88;;;7.40;99.90;;;;;;5029153;28;20483;-69
2022/04/25 06:07:16;;;;;;;10.80;5.53;;;7.40;99.90;;;;;;5027615;28;20377;-69
2022/04/25 06:09:41;;;;;;;15.55;5.32;;;7.40;99.90;;;;;;5028026;28;20060;-69
2022/04/25 06:12:07;;;;;;;8.55;5.55;;;7.40;99.90;;;;;;4994377;28;20045;-69
2022/04/25 06:14:34;;;;;;;14.32;6.47;;;7.40;99.90;;;;;;5028510;28;20188;-70
2022/04/25 06:17:00;;;;;;;9.63;5.90;;;7.50;99.90;;;;;;4995050;28;20041;-69
2022/04/25 06:19:26;;;;;;;11.02;6.60;;;7.50;99.90;;;;;;5028361;28;20833;-69
2022/04/25 06:21:52;;;;;;;14.93;6.60;;;7.60;99.90;;;;;;5026948;28;20045;-69
2022/04/25 06:24:18;;;;;;;12.98;6.50;;;7.60;99.90;;;;;;5027657;28;20050;-69
2022/04/25 06:26:43;;;;;;;12.30;6.03;;;7.70;99.90;;;;;;5028350;28;20049;-69
2022/04/25 06:29:09;;;;;;;11.40;6.75;;;7.80;99.90;;;;;;5028532;28;20056;-69
2022/04/25 06:31:35;;;;;;;10.13;5.55;;;7.70;99.90;;;;;;5021260;28;20504;-69
2022/04/25 06:34:01;;;;;;;17.58;6.57;;;7.70;99.90;;;;;;5007621;28;20093;-69
2022/04/25 06:36:27;;;;;;;18.90;6.30;;;7.70;99.90;;;;;;4990491;28;20077;-69
2022/04/25 06:38:52;;;;;;;8.02;4.78;;;7.70;99.90;;;;;;5007741;28;20081;-69
2022/04/25 06:41:18;;;;;;;10.50;5.43;;;7.80;99.90;;;;;;5010407;28;20054;-69
2022/04/25 06:43:44;;;;;;;9.20;4.82;;;7.70;99.90;;;;;;5027661;28;20037;-69
2022/04/25 06:46:09;;;;;;;14.48;4.28;;;7.70;99.90;;;;;;5027915;28;20083;-70
2022/04/25 06:48:35;;;;;;;14.00;4.80;;;7.80;99.90;;;;;;5026121;28;20052;-69
2022/04/25 06:51:01;;;;;;;12.13;4.57;;;7.70;99.90;;;;;;5027730;28;20070;-69
2022/04/25 06:53:27;;;;;;;13.30;4.80;;;7.70;99.90;;;;;;5027773;28;20435;-69
2022/04/25 06:55:53;;;;;;;9.77;4.10;;;7.80;99.90;;;;;;5026475;28;20054;-69
2022/04/25 06:58:19;;;;;;;15.85;4.38;;;7.80;99.90;;;;;;5026938;28;20099;-69
2022/04/25 07:00:46;;;;;;;8.88;5.13;;;7.90;99.90;;;;;;5026708;28;20149;-69
2022/04/25 07:03:12;;;;;;;10.90;4.15;;;7.90;99.90;;;;;;5014470;28;20042;-69
2022/04/25 07:05:37;;;;;;;7.72;3.60;;;7.90;99.90;;;;;;5020068;28;20045;-69
2022/04/25 07:08:04;;;;;;;8.27;3.45;;;7.90;99.90;;;;;;5027213;28;20057;-69
2022/04/25 07:10:31;;;;;;;8.05;3.22;;;7.90;99.90;;;;;;5024106;28;20119;-69
2022/04/25 07:12:56;;;;;;;7.78;3.53;;;8.00;99.90;;;;;;5026462;28;20080;-68
2022/04/25 07:15:25;;;;;;;9.30;3.65;;;8.00;99.90;;;;;;5027533;28;20496;-69
2022/04/25 07:17:55;;;;;;;14.75;3.75;;;8.00;99.90;;;;;;5026832;28;20095;-69
2022/04/25 07:20:22;;;;;;;10.35;3.95;;;8.10;99.90;;;;;;5026928;28;20049;-69
2022/04/25 07:31:00;;;;;;;4.50;2.72;;;8.40;99.90;;;;;;5025804;28;20049;-69
2022/04/25 07:33:30;;;;;;;7.72;3.20;;;8.50;99.90;;;;;;5027181;28;20045;-69
2022/04/25 07:36:03;;;;;;;9.73;3.00;;;8.40;99.90;;;;;;5025732;28;20038;-70
2022/04/25 07:38:29;;;;;;;7.28;2.80;;;8.50;99.90;;;;;;5024458;28;20116;-69
2022/04/25 07:40:54;;;;;;;8.43;3.63;;;8.60;99.90;;;;;;5015502;28;20034;-68
2022/04/25 07:43:20;;;;;;;8.13;2.90;;;8.60;99.90;;;;;;5012526;28;20041;-68
2022/04/25 07:45:46;;;;;;;9.73;3.15;;;8.60;99.90;;;;;;5015075;28;20054;-68
2022/04/25 07:48:12;;;;;;;6.13;3.10;;;8.60;99.90;;;;;;4988866;28;20046;-68
2022/04/25 07:50:39;;;;;;;7.50;2.85;;;8.70;99.90;;;;;;5005572;28;20148;-69
2022/04/25 07:53:05;;;;;;;8.25;2.80;;;8.90;99.90;;;;;;5005184;28;20057;-68
2022/04/25 07:55:32;;;;;;;9.20;3.65;;;8.90;99.90;;;;;;5012117;28;20060;-69
2022/04/25 07:57:57;;;;;;;4.95;2.50;;;8.90;99.90;;;;;;5023532;28;20070;-69
2022/04/25 08:00:23;;;;;;;7.80;3.30;;;9.00;99.90;;;;;;5004933;28;20041;-69
2022/04/25 08:02:49;;;;;;;9.25;3.33;;;9.00;99.90;;;;;;5022371;28;20057;-69
2022/04/25 08:05:15;;;;;;;6.13;2.97;;;9.10;99.90;;;;;;5025078;28;20491;-68
2022/04/25 08:07:40;;;;;;;8.20;3.00;;;9.20;99.90;;;;;;5023915;28;20041;-69
2022/04/25 08:10:06;;;;;;;7.03;3.55;;;9.10;99.90;;;;;;5024943;28;20067;-69
2022/04/25 08:18:01;;;;;;;8.95;3.22;;;9.30;99.90;;;;;;5004979;28;20065;-69
2022/04/25 08:20:33;;;;;;;7.18;3.35;;;9.40;99.90;;;;;;5008964;28;20488;-68
2022/04/25 08:22:59;;;;;;;7.28;2.85;;;9.60;99.90;;;;;;5020265;28;20041;-69
2022/04/25 08:25:25;;;;;;;7.63;3.25;;;9.70;99.40;;;;;;5008785;28;20322;-69
2022/04/25 08:27:51;;;;;;;7.45;3.00;;;9.90;99.90;;;;;;5022597;28;20487;-69
2022/04/25 08:30:17;;;;;;;5.70;3.53;;;10.10;99.90;;;;;;5007691;28;21015;-69
2022/04/25 08:32:46;;;;;;;7.55;3.20;;;10.30;99.90;;;;;;5039231;28;20053;-70
2022/04/25 08:35:13;;;;;;;6.55;3.08;;;10.40;99.80;;;;;;5014748;28;20500;-70
2022/04/25 08:37:40;;;;;;;6.35;3.30;;;10.40;97.90;;;;;;5023438;28;20223;-70
2022/04/25 08:40:06;;;;;;;7.85;3.13;;;10.40;98.10;;;;;;5025952;28;20061;-70
2022/04/25 08:42:31;;;;;;;10.23;2.97;;;10.30;96.80;;;;;;5025635;28;20511;-70
2022/04/25 08:45:00;;;;;;;6.53;2.78;;;10.40;99.30;;;;;;5025279;28;20056;-70
2022/04/25 08:47:33;;;;;;;5.18;2.65;;;10.50;98.40;;;;;;5025397;28;20128;-70
2022/04/25 08:49:59;;;;;;;7.13;2.50;;;10.50;94.40;;;;;;5019910;28;20500;-70
2022/04/25 08:52:29;;;;;;;6.07;2.70;;;10.50;96.20;;;;;;5004180;28;20499;-70
2022/04/25 08:54:57;;;;;;;5.38;2.75;;;10.50;96.70;;;;;;5022044;28;20049;-71
2022/04/25 08:57:25;;;;;;;9.25;2.75;;;10.50;96.60;;;;;;5022010;28;20439;-70
2022/04/25 08:59:55;;;;;;;6.50;2.92;;;10.60;99.00;;;;;;5020504;28;20046;-70
2022/04/25 09:02:22;;;;;;;5.25;2.38;;;10.70;95.30;;;;;;5022246;28;20064;-69
2022/04/25 09:04:51;;;;;;;6.78;2.97;;;10.90;95.20;;;;;;5025365;28;20396;-68
2022/04/25 09:07:17;;;;;;;8.15;2.78;;;11.00;95.20;;;;;;5013884;28;20471;-67
2022/04/25 09:09:43;;;;;;;3.88;2.13;;;11.10;95.30;;;;;;5024831;28;20033;-68
2022/04/25 09:12:12;;;;;;;7.13;2.70;;;11.20;92.50;;;;;;4998668;28;20064;-69
2022/04/25 09:14:40;;;;;;;7.20;2.45;;;11.10;94.10;;;;;;5010935;28;20049;-68
2022/04/25 09:17:06;;;;;;;4.82;3.03;;;11.00;92.20;;;;;;5022471;28;20247;-68
2022/04/25 09:19:37;;;;;;;3.92;2.55;;;11.10;92.80;;;;;;5025139;28;20049;-68
2022/04/25 09:22:03;;;;;;;;;;;11.40;98.10;;;;;;5024820;28;20037;-67
2022/04/25 09:24:32;;;;;;;5.85;2.72;;;11.60;94.50;;;;;;5023487;28;20571;-68
2022/04/25 09:27:07;;;;;;;4.38;2.90;;;11.90;92.90;;;;;;5024918;28;20042;-68
2022/04/25 09:29:34;;;;;;;7.47;2.78;;;12.10;90.70;;;;;;5022517;28;20057;-67
2022/04/25 09:32:01;;;;;;;6.13;2.72;;;12.50;91.00;;;;;;5040014;28;20492;-67
2022/04/25 09:37:13;;;;;;;4.95;2.42;;;12.80;74.70;;;;;;5025826;28;20647;-67
2022/04/25 09:39:40;;;;;;;2.70;2.50;;;13.30;84.70;;;;;;5029534;28;20041;-66
2022/04/25 09:42:07;;;;;;;5.93;2.83;;;13.60;78.40;;;;;;5028923;28;20049;-66
2022/04/25 09:44:58;;;;;;;7.32;3.10;;;13.80;76.20;;;;;;5028422;28;20829;-67
2022/04/25 09:47:31;;;;;;;3.35;2.50;;;14.00;63.70;;;;;;5027212;28;20056;-66
2022/04/25 09:50:17;;;;;;;3.67;2.78;;;14.10;68.20;;;;;;5027953;28;20124;-67
2022/04/25 09:52:58;;;;;;;7.18;2.75;;;14.10;69.20;;;;;;5028676;28;20459;-67
2022/04/25 09:55:29;;;;;;;5.15;3.13;;;14.20;70.40;;;;;;5026890;28;20572;-67
2022/04/25 09:57:55;;;;;;;7.20;3.13;;;14.40;75.30;;;;;;5013884;28;20069;-67
2022/04/25 10:00:38;;;;;;;4.10;2.70;;;14.50;67.20;;;;;;5009202;28;20514;-67
2022/04/25 10:03:08;;;;;;;4.90;2.50;;;14.40;57.90;;;;;;5008860;28;20045;-69
2022/04/25 10:05:45;;;;;;;3.05;2.50;;;14.50;59.80;;;;;;5024679;28;20400;-69
2022/04/25 10:08:13;;;;;;;6.75;2.65;;;14.50;59.60;;;;;;5028883;28;20049;-67
2022/04/25 10:10:45;;;;;;;2.72;2.25;;;14.30;67.30;;;;;;5026592;28;20094;-68
2022/04/25 10:13:11;;;;;;;4.47;2.47;;;14.00;66.30;;;;;;5016560;28;20038;-67
2022/04/25 10:15:38;;;;;;;6.38;2.88;;;13.50;57.70;;;;;;5024172;28;20692;-67
2022/04/25 10:18:06;;;;;;;5.28;2.88;;;13.20;68.20;;;;;;5023589;28;20495;-68
2022/04/25 10:20:34;;;;;;;5.38;2.70;;;13.20;75.10;;;;;;5026955;28;20043;-68
2022/04/25 10:23:05;;;;;;;4.60;2.80;;;13.30;71.70;;;;;;5028218;28;20403;-68
2022/04/25 10:25:31;;;;;;;3.30;2.50;;;13.50;76.80;;;;;;5028227;28;20720;-68
2022/04/25 10:28:01;;;;;;;3.83;2.40;;;13.60;73.70;;;;;;5027296;28;20440;-68
2022/04/25 10:30:33;;;;;;;6.45;2.30;;;14.00;76.60;;;;;;5011664;28;20045;-67
2022/04/25 10:33:48;;;;;;;4.00;2.60;;;14.50;70.30;;;;;;5026669;28;20037;-68
2022/04/25 10:36:38;;;;;;;3.15;2.10;;;15.00;73.20;;;;;;4981531;28;20062;-68
2022/04/25 10:39:27;;;;;;;3.38;2.30;;;15.30;58.10;;;;;;5007610;28;20394;-67
2022/04/25 10:44:37;;;;;;;6.20;1.88;;;15.40;48.60;;;;;;5027289;28;20045;-67
2022/04/25 10:47:06;;;;;;;8.00;1.88;;;15.40;57.00;;;;;;5010285;28;20052;-68
2022/04/25 10:49:35;;;;;;;4.07;2.38;;;15.60;51.70;;;;;;5007630;28;20045;-68
2022/04/25 10:52:03;;;;;;;3.72;2.30;;;15.50;43.70;;;;;;5022982;28;20110;-67
2022/04/25 10:54:47;;;;;;;4.10;1.92;;;15.40;46.20;;;;;;5028113;28;20137;-67
2022/04/25 10:57:13;;;;;;;8.00;2.30;;;15.50;41.50;;;;;;5027786;28;20045;-68
2022/04/25 10:59:39;;;;;;;5.70;2.65;;;15.60;35.70;;;;;;5026310;28;20219;-67
2022/04/25 11:02:21;;;;;;;4.57;3.05;;;15.60;47.50;;;;;;5026561;28;20160;-68
2022/04/25 11:04:47;;;;;;;7.93;2.30;;;15.40;36.60;;;;;;5018164;28;20067;-68
2022/04/25 11:07:21;;;;;;;3.50;2.20;;;15.00;40.90;;;;;;5027497;28;20403;-67
2022/04/25 11:09:47;;;;;;;2.70;2.05;;;14.70;42.30;;;;;;5027807;28;20444;-68
2022/04/25 11:12:14;;;;;;;2.70;2.30;;;14.40;42.40;;;;;;5027047;28;20045;-68
2022/04/25 11:14:57;;;;;;;3.42;2.42;;;14.20;47.30;;;;;;5026130;28;20037;-68
2022/04/25 11:17:23;;;;;;;8.05;2.80;;;14.00;49.40;;;;;;5027708;28;20116;-68
2022/04/25 11:19:55;;;;;;;2.45;2.00;;;13.90;48.60;;;;;;5026954;28;20521;-67
2022/04/25 11:22:35;;;;;;;4.07;2.50;;;13.90;52.30;;;;;;5025782;28;20515;-67
2022/04/25 11:25:23;;;;;;;5.18;1.95;;;14.40;61.10;;;;;;5026777;28;20046;-68
2022/04/25 11:28:11;;;;;;;4.65;2.45;;;15.00;49.80;;;;;;5027439;28;20053;-67
2022/04/25 11:30:38;;;;;;;3.77;2.17;;;15.40;45.20;;;;;;5026125;28;20050;-68
2022/04/25 11:33:06;;;;;;;6.85;2.70;;;15.80;38.00;;;;;;5024984;28;20507;-68
2022/04/25 11:35:33;;;;;;;95.25;7.72;;;16.00;41.30;;;;;;5026156;28;20041;-68
2022/04/25 11:37:59;;;;;;;8.60;2.50;;;16.00;35.60;;;;;;5026877;28;20041;-68
2022/04/25 11:40:28;;;;;;;3.58;2.53;;;16.10;42.10;;;;;;5025450;28;20064;-68
2022/04/25 11:42:54;;;;;;;4.53;2.65;;;16.30;39.40;;;;;;5025548;28;20126;-67
2022/04/25 11:45:20;;;;;;;3.78;2.40;;;16.50;37.30;;;;;;5025572;28;20492;-67
2022/04/25 11:47:46;;;;;;;2.78;2.58;;;16.70;33.40;;;;;;5026710;28;20042;-68
2022/04/25 11:50:12;;;;;;;3.28;2.75;;;16.80;37.20;;;;;;5026316;28;20537;-68
2022/04/25 11:52:48;;;;;;;2.88;2.65;;;16.90;38.70;;;;;;5027042;28;20107;-68
2022/04/25 11:55:15;;;;;;;4.05;2.70;;;17.00;37.20;;;;;;5026500;28;20045;-68
2022/04/25 11:57:42;;;;;;;2.63;2.15;;;16.90;38.40;;;;;;5025413;28;20056;-68
2022/04/25 12:00:19;;;;;;;5.75;2.50;;;16.40;32.70;;;;;;5025479;28;20379;-69
2022/04/25 12:02:45;;;;;;;3.40;2.67;;;16.20;41.20;;;;;;5026177;28;20045;-68
2022/04/25 12:05:12;;;;;;;2.95;2.72;;;16.00;42.20;;;;;;5025222;28;20045;-69
2022/04/25 12:15:34;;;;;;;2.92;2.60;;;15.50;34.30;;;;;;5020511;28;20042;-68
2022/04/25 12:15:57;;;;;;;7.00;3.20;;;15.10;47.50;;;;;;5006969;28;20046;-68
2022/04/25 12:18:27;;;;;;;6.00;2.88;;;15.00;53.00;;;;;;5017914;28;20458;-69
2022/04/25 12:21:05;;;;;;;6.63;3.30;;;14.70;61.20;;;;;;5025061;28;20053;-69
2022/04/25 12:23:33;;;;;;;3.20;2.95;;;14.70;52.20;;;;;;5026063;28;20049;-69
2022/04/25 12:26:03;;;;;;;4.15;3.00;;;14.70;56.30;;;;;;5026049;28;20076;-69
2022/04/25 12:28:34;;;;;;;6.40;3.17;;;14.50;57.00;;;;;;5021583;28;20454;-69
2022/04/25 12:31:08;;;;;;;3.25;2.95;;;13.90;56.90;;;;;;5008065;28;20130;-69
2022/04/25 12:33:42;;;;;;;4.82;3.28;;;13.70;62.90;;;;;;5020975;28;20100;-69
2022/04/25 12:36:20;;;;;;;4.40;3.03;;;13.60;66.70;;;;;;5006071;28;20398;-69
2022/04/25 12:38:53;;;;;;;4.80;2.90;;;13.70;64.20;;;;;;5011060;28;20046;-69
2022/04/25 12:41:33;;;;;;;5.95;3.08;;;13.70;61.40;;;;;;5025890;28;20051;-70
2022/04/25 12:44:11;;;;;;;5.57;3.15;;;13.80;64.70;;;;;;5024858;28;20056;-71
2022/04/25 12:46:40;;;;;;;3.47;2.92;;;13.80;67.60;;;;;;5025990;28;20041;-70
2022/04/25 12:49:14;;;;;;;4.53;2.65;;;13.90;60.60;;;;;;5024614;28;20041;-71
2022/04/25 12:51:52;;;;;;;5.35;2.63;;;14.00;60.90;;;;;;5024657;28;20061;-69
2022/04/25 12:54:41;;;;;;;4.28;3.08;;;14.30;56.50;;;;;;5025338;28;20132;-70
2022/04/25 12:57:16;;;;;;;6.05;3.10;;;14.30;65.90;;;;;;5025070;28;20064;-70
2022/04/25 12:59:56;;;;;;;3.10;2.80;;;14.30;58.10;;;;;;5025994;28;20064;-70
2022/04/25 13:02:32;;;;;;;4.38;2.92;;;14.30;56.20;;;;;;5020844;28;20459;-70
2022/04/25 13:05:13;;;;;;;6.35;3.17;;;14.30;63.10;;;;;;5006204;28;20133;-71
2022/04/25 13:07:44;;;;;;;6.57;3.30;;;14.10;60.80;;;;;;5007328;28;20515;-70
2022/04/25 13:10:14;;;;;;;7.82;3.25;;;14.00;68.80;;;;;;5023972;28;20053;-70
2022/04/25 13:12:42;;;;;;;4.05;3.15;;;14.00;72.90;;;;;;5028095;28;20045;-70
2022/04/25 13:15:12;;;;;;;6.93;3.08;;;14.10;62.40;;;;;;5014754;28;20069;-70
2022/04/25 13:17:39;;;;;;;7.05;3.22;;;14.20;64.60;;;;;;5008219;28;20424;-71
2022/04/25 13:20:08;;;;;;;5.25;3.42;;;14.10;66.00;;;;;;5007533;28;20112;-70
2022/04/25 13:22:34;;;;;;;7.65;3.25;;;14.10;65.10;;;;;;5008303;28;20539;-71
2022/04/25 13:25:00;;;;;;;4.43;3.60;;;14.00;60.00;;;;;;5009933;28;20038;-71
2022/04/25 13:27:26;;;;;;;4.18;3.35;;;14.00;61.40;;;;;;5023404;28;20041;-70